AirNav   Everest Fuels
 
 1490 users online  

5FL3 Hospital Brandon Helistop
Brandon, Florida, USA

GOING TO BRANDON?


FAA INFORMATION EFFECTIVE 16 JULY 2020

Location

FAA Identifier: 5FL3
Lat/Long: 27-55-58.4400N 082-17-19.5800W
27-55.974000N 082-17.326333W
27.9329000,-82.2887722
(estimated)
Elevation: 64 ft. / 20 m (estimated)
Variation: 02W (1985)
Time zone: UTC -4 (UTC -5 during Standard Time)
Zip code: 33511

Heliport Operations

Heliport use: Private use, MEDICAL.
Activation date: 11/1989
Control tower: no
ARTCC: MIAMI CENTER
FSS: SAINT PETERSBURG FLIGHT SERVICE STATION
Attendance: UNATNDD
Wind indicator: yes
Segmented circle: no
Lights: FOR PERIMETER LGTS PHONE 813-681-5551.

Heliport Communications

WX AWOS-3 at VDF (6 nm NW): 121.125 (813-630-0924)
WX AWOS-3 at PCM (8 nm NE): 120.025 (813-764-8259)
WX AWOS-3 at TPF (9 nm W): 118.925 (813-251-6824)
WX ASOS at TPA (13 nm W): PHONE 813-873-7228
WX AWOS-3PT at LAL (15 nm E): 118.025 (863-834-2030)
WX AWOS-3PT at ZPH (19 nm N): 118.975 (813-780-0031)

Nearby radio navigation aids

VOR radial/distance  VOR name  Freq  Var
LALr257/14.9LAKELAND VORTAC116.0001E
PIEr091/21.0ST PETERSBURG VORTAC116.4005W
SRQr030/34.8SARASOTA VOR/DME117.0005W

Heliport Services

Runway Information

Helipad H1

Dimensions: 40 x 40 ft. / 12 x 12 m
Surface: concrete
Runway edge lights: PERI
Latitude: 27-55.974000N
Longitude: 082-17.326333W
Elevation: 64.0 ft.
Traffic pattern: leftleft

Heliport Ownership and Management from official FAA records

Ownership: Privately-owned
Owner: HOSPITAL, BRANDON
119 OAKFIELD DR
BRANDON, FL 33511
Phone 813-916-0600
Manager: RICHARD WALKER
119 OAKFIELD DR
BRANDON, FL 33511
Phone 813-916-0477

Additional Remarks

A52 40' BLDG 147' E.
FOR CD CTC TAMPA APCH AT 813-878-2528

Instrument Procedures

There are no published instrument procedures at 5FL3.

Some nearby airports with instrument procedures:

KVDF - Tampa Executive Airport (6 nm NW)
KPCM - Plant City Airport (8 nm NE)
KTPF - Peter O Knight Airport (9 nm W)
KTPA - Tampa International Airport (13 nm W)
KMCF - MacDill Air Force Base (13 nm W)
KLAL - Lakeland Linder International Airport (15 nm E)
KZPH - Zephyrhills Municipal Airport (19 nm N)
 
Loc | Ops | Rwys | IFR | FBO | Links
Com | Nav | Svcs | Stats | Notes


 
Area around 5FL3 (Hospital Brandon Helistop)
 
Road maps at: MapQuest Bing Google
 
Aerial photo
No photo
 
Sectional chart

 
Airport distance calculator
Flying to Hospital Brandon Helistop? Find the distance to fly.

From to 5FL3

Sunrise and sunset
Times for 07-Aug-2020
 Local
(UTC-4)
 Zulu
(UTC)
Morning civil twilight06:3210:32
Sunrise06:5710:57
Sunset20:1300:13
Evening civil twilight20:3800:38

Current date and time
Zulu (UTC)  07-Aug-2020 16:37:57
Local (UTC-4)  07-Aug-2020 12:37:57
 
METAR
KVDF 
6nm NW 
071615Z AUTO 00000KT 10SM SCT032 32/25 A3011 RMK AO2
KPCM 
8nm NE 
071615Z AUTO 00000KT 10SM SCT030 32/27 A3012 RMK AO2
KTPF 
9nm W 
071615Z AUTO 18005KT 10SM OVC100 33/28 A3011 RMK AO2
KMCF 
13nm W 
071556Z AUTO 20003KT 10SM FEW150 FEW180 SCT220 31/25 A3010 RMK AO2 SLP196 T03110252 FZRANO $
KTPA 
13nm W 
071553Z 21005KT 10SM FEW035 SCT250 32/23 A3010 RMK AO2 SLP192 CU BLDG NW T03220228
KLAL 
15nm E 
071550Z 00000KT 10SM SCT030 31/23 A3011
KZPH 
19nm N 
071615Z AUTO 00000KT 10SM SCT033 BKN040 31/23 A3012 RMK A02 LTG DSNT N AND NW T03130233
TAF
KMCF 
13nm W 
071200Z 0712/0818 VRB06KT 9999 FEW030 FEW120 QNH3003INS BECMG 0717/0718 25009KT 9999 VCTS SCT050CB QNH2998INS BECMG 0721/0722 VRB06KT 9999 NSW FEW040 QNH2999INS BECMG 0815/0816 27009KT 9999 VCTS SCT035CB QNH3010INS TEMPO 0816/0818 VRB10G15KT 9000 -TSRA SCT035CB TX33/0718Z TN26/0808Z
KTPA 
13nm W 
071500Z 0715/0818 25006KT P6SM VCTS SCT030CB BKN250 FM072100 28007KT P6SM SCT035 SCT130 BKN250 FM080100 VRB03KT P6SM FEW030 SCT250 FM081600 28006KT P6SM SCT030 SCT250
KLAL 
15nm E 
071125Z 0712/0812 VRB03KT P6SM SCT025 SCT250 FM071700 29005KT P6SM VCTS BKN035CB FM080100 VRB03KT P6SM SCT030 SCT130 BKN250
NOTAMs
Click for the latest NOTAMs
NOTAMs are issued by the DoD/FAA and will open in a separate window not controlled by AirNav.

 

 
 

Would you like to see your business listed on this page?

 If your business provides an interesting product or service to pilots, flight crews, aircraft, or users of the Hospital Brandon Helistop, you should consider listing it here.  To start the listing process, click on the button below
 
Add a business
 

Other Pages about Hospital Brandon Helistop

Update a link
 
Copyright © AirNav, LLC. All rights reserved. Privacy Policy  Contact